Time;durP1;ratioP1;P1;durP2;ratioP2;P2;SDS_P1;SDS_P2;PMS_P1;PMS_P2;Temp;Humidity;BMP_temperature;BMP_pressure;BME280_temperature;BME280_humidity;BME280_pressure;Samples;Min_cycle;Max_cycle;Signal;HPM_P1;HPM_P2
2022/01/24 00:00:13;;;;;;;53.40;33.78;;;;;;;6.55;71.95;103261.56;3593408;40;20064;-61
2022/01/24 00:02:41;;;;;;;45.60;30.42;;;;;;;6.46;69.88;103257.13;3588552;40;20102;-62
2022/01/24 00:05:07;;;;;;;44.45;29.77;;;;;;;6.46;69.27;103260.69;3592074;40;20394;-61
2022/01/24 00:07:33;;;;;;;44.50;30.33;;;;;;;6.48;68.84;103261.59;3593288;40;20137;-62
2022/01/24 00:10:00;;;;;;;44.60;30.17;;;;;;;6.46;67.57;103258.03;3590728;40;20072;-61
2022/01/24 00:12:45;;;;;;;44.63;30.30;;;;;;;6.41;67.47;103245.63;3585705;40;20063;-62
2022/01/24 00:17:51;;;;;;;36.78;25.02;;;;;;;6.37;65.82;103252.72;3591848;40;20048;-61
2022/01/24 00:28:26;;;;;;;31.60;22.10;;;;;;;6.45;63.93;103255.38;3588588;40;20142;-61
2022/01/24 00:30:53;;;;;;;31.95;21.75;;;;;;;6.47;63.85;103266.91;3585965;40;20075;-61
2022/01/24 00:33:19;;;;;;;31.90;22.10;;;;;;;6.42;63.58;103255.38;3587907;40;20136;-61
2022/01/24 00:35:46;;;;;;;34.50;23.45;;;;;;;6.34;64.44;103233.16;3590820;40;20052;-61
2022/01/24 00:38:12;;;;;;;33.60;23.52;;;;;;;6.47;65.59;103249.13;3593096;40;20051;-62
2022/01/24 00:40:40;;;;;;;32.92;22.88;;;;;;;6.40;65.22;103235.81;3593888;40;20055;-64
2022/01/24 00:43:26;;;;;;;35.20;23.63;;;;;;;6.48;65.72;103244.66;3591304;40;20045;-62
2022/01/24 00:45:58;;;;;;;38.40;24.67;;;;;;;6.46;65.21;103241.13;3595988;40;20056;-63
2022/01/24 00:56:14;;;;;;;36.83;24.10;;;;;;;6.20;65.89;103212.75;3594376;40;20044;-62
2022/01/24 00:58:40;;;;;;;37.17;25.35;;;;;;;6.41;66.05;103253.63;3592591;40;20409;-62
2022/01/24 01:01:06;;;;;;;32.58;22.63;;;;;;;6.40;64.52;103258.06;3586468;40;20059;-61
2022/01/24 01:03:33;;;;;;;32.95;22.92;;;;;;;6.42;64.08;103255.38;3589619;40;20344;-63
2022/01/24 01:06:05;;;;;;;33.10;22.38;;;;;;;6.43;63.97;103251.81;3591341;40;20053;-63
2022/01/24 01:19:35;;;;;;;31.95;22.25;;;;;;;6.32;63.71;103230.50;3586155;40;20173;-62
2022/01/24 01:22:00;;;;;;;33.40;23.52;;;;;;;6.43;64.13;103242.00;3592054;40;20059;-64
2022/01/24 01:24:28;;;;;;;33.45;22.08;;;;;;;6.43;64.78;103246.47;3578471;40;20071;-62
2022/01/24 01:27:02;;;;;;;35.55;23.30;;;;;;;6.33;64.08;103228.72;3581750;40;20044;-63
2022/01/24 01:29:33;;;;;;;33.35;23.38;;;;;;;6.40;65.13;103238.47;3590697;40;20457;-62
2022/01/24 01:32:25;;;;;;;32.85;23.40;;;;;;;6.17;65.46;103196.75;3588518;40;20379;-62
2022/01/24 01:35:07;;;;;;;34.85;23.50;;;;;;;6.41;65.09;103237.59;3590883;40;20063;-63
2022/01/24 01:56:27;;;;;;;29.42;20.60;;;;;;;6.31;64.43;103239.41;3594335;40;20353;-63
2022/01/24 01:58:52;;;;;;;35.47;21.38;;;;;;;6.23;64.48;103222.53;3595907;40;20052;-63
2022/01/24 02:01:18;;;;;;;31.83;22.52;;;;;;;6.35;64.29;103238.50;3594488;40;20382;-63
2022/01/24 02:03:44;;;;;;;30.52;20.98;;;;;;;6.33;64.76;103234.06;3595040;40;20043;-64
2022/01/24 02:06:12;;;;;;;29.42;20.67;;;;;;;6.28;64.53;103224.31;3593958;40;20051;-62
2022/01/24 02:08:38;;;;;;;32.53;21.02;;;;;;;6.28;64.37;103226.97;3594704;40;20091;-64
2022/01/24 02:11:04;;;;;;;33.15;21.77;;;;;;;6.36;64.02;103244.75;3593659;39;20059;-63
2022/01/24 02:13:31;;;;;;;32.70;20.48;;;;;;;6.34;64.57;103225.16;3593517;40;20059;-62
2022/01/24 02:18:33;;;;;;;29.52;20.95;;;;;;;6.36;64.38;103223.38;3593855;40;20324;-63
2022/01/24 02:21:11;;;;;;;31.00;21.63;;;;;;;6.37;64.05;103226.00;3592422;40;20096;-63
2022/01/24 02:23:45;;;;;;;30.50;20.92;;;;;;;6.25;64.89;103200.28;3585887;40;20076;-62
2022/01/24 02:26:19;;;;;;;32.75;22.08;;;;;;;6.38;64.48;103217.13;3584405;40;20055;-63
2022/01/24 02:28:58;;;;;;;;;;;;;;;6.35;65.32;103219.81;3586061;40;20064;-63
2022/01/24 02:31:43;;;;;;;31.95;21.95;;;;;;;6.20;65.47;103194.06;3589043;40;20211;-62
2022/01/24 02:34:30;;;;;;;32.75;22.02;;;;;;;6.34;66.04;103225.16;3576916;40;20051;-63
2022/01/24 02:37:05;;;;;;;31.55;22.05;;;;;;;6.18;66.75;103202.97;3591218;40;20052;-61
2022/01/24 02:53:17;;;;;;;35.28;23.40;;;;;;;6.06;65.41;103187.94;3583374;40;20096;-63
2022/01/24 02:55:43;;;;;;;31.00;22.48;;;;;;;6.24;65.46;103217.19;3591116;40;20091;-63
2022/01/24 02:58:09;;;;;;;32.50;22.38;;;;;;;6.16;65.35;103199.44;3587003;40;20052;-61
2022/01/24 03:00:38;;;;;;;29.15;20.67;;;;;;;6.20;64.84;103206.53;3593301;39;20056;-63
2022/01/24 03:03:04;;;;;;;30.35;21.63;;;;;;;6.23;64.67;103217.22;3587464;40;20063;-63
2022/01/24 03:05:31;;;;;;;28.80;21.02;;;;;;;6.22;65.07;103210.09;3589787;40;20056;-63
2022/01/24 03:07:57;;;;;;;31.13;21.05;;;;;;;6.20;64.71;103206.53;3585266;40;20121;-62
2022/01/24 03:13:09;;;;;;;30.95;22.05;;;;;;;6.18;64.99;103203.84;3566831;40;20053;-65
2022/01/24 03:15:38;;;;;;;31.38;22.17;;;;;;;6.18;64.81;103203.84;3570399;40;20384;-65
2022/01/24 03:18:05;;;;;;;31.27;22.35;;;;;;;6.17;64.47;103202.09;3573268;40;20061;-65
2022/01/24 03:20:32;;;;;;;31.90;23.02;;;;;;;6.16;64.21;103204.78;3572289;40;20057;-65
2022/01/24 03:22:57;;;;;;;33.50;22.85;;;;;;;6.19;64.33;103202.09;3577089;40;20111;-65
2022/01/24 03:25:24;;;;;;;33.38;23.80;;;;;;;6.17;64.44;103202.09;3576053;40;20060;-65
2022/01/24 03:27:49;;;;;;;32.28;22.55;;;;;;;6.19;64.59;103197.66;3577838;40;20057;-65
2022/01/24 03:30:15;;;;;;;31.90;23.35;;;;;;;6.19;65.10;103194.97;3575704;40;20587;-65
2022/01/24 03:32:40;;;;;;;35.53;23.52;;;;;;;6.15;65.17;103186.97;3580720;40;20048;-65
2022/01/24 03:35:07;;;;;;;33.63;23.75;;;;;;;6.16;65.34;103195.00;3579649;40;20048;-65
2022/01/24 03:37:37;;;;;;;36.17;23.52;;;;;;;6.17;65.08;103194.09;3579663;40;20390;-65
2022/01/24 03:40:05;;;;;;;35.90;23.95;;;;;;;6.12;64.70;103192.31;3569970;40;20421;-64
2022/01/24 03:42:32;;;;;;;31.58;22.40;;;;;;;6.17;63.92;103190.53;3578426;40;20052;-64
2022/01/24 03:45:02;;;;;;;34.60;24.45;;;;;;;6.15;64.88;103187.88;3568920;40;20079;-65
2022/01/24 03:50:01;;;;;;;33.40;23.52;;;;;;;6.17;65.31;103191.41;3578073;40;20041;-65
2022/01/24 03:52:30;;;;;;;33.22;23.33;;;;;;;6.15;64.89;103197.66;3576680;40;20139;-65
2022/01/24 03:54:58;;;;;;;32.55;23.08;;;;;;;6.11;65.85;103202.13;3559712;40;20370;-65
2022/01/24 03:57:25;;;;;;;33.65;23.52;;;;;;;6.12;65.82;103203.91;3569285;40;20064;-65
2022/01/24 03:59:52;;;;;;;32.95;23.85;;;;;;;6.09;65.23;103192.34;3578622;40;20040;-65
2022/01/24 04:02:23;;;;;;;32.47;23.77;;;;;;;6.09;65.65;103182.56;3570819;40;20056;-65
2022/01/24 04:04:49;;;;;;;36.22;24.00;;;;;;;6.09;66.41;103193.25;3574006;40;20434;-65
2022/01/24 04:07:16;;;;;;;33.47;23.95;;;;;;;6.07;65.56;103195.03;3572379;40;20384;-65
2022/01/24 04:09:42;;;;;;;34.40;24.35;;;;;;;6.08;65.33;103185.22;3566054;40;20053;-65
2022/01/24 04:12:11;;;;;;;35.50;24.77;;;;;;;6.08;65.94;103186.13;3565138;40;20061;-65
2022/01/24 04:22:20;;;;;;;32.08;22.65;;;;;;;6.09;63.85;103187.91;3574605;40;20071;-65
2022/01/24 04:24:47;;;;;;;33.33;22.77;;;;;;;6.08;64.31;103185.22;3569419;40;20330;-65
2022/01/24 04:27:14;;;;;;;29.92;21.90;;;;;;;6.05;64.75;103184.34;3573581;40;20040;-65
2022/01/24 04:29:42;;;;;;;32.30;23.02;;;;;;;6.03;64.35;103188.81;3566170;40;20057;-65
2022/01/24 04:32:08;;;;;;;30.48;22.35;;;;;;;6.05;64.87;103186.13;3568419;40;20079;-65
2022/01/24 04:34:35;;;;;;;32.15;22.77;;;;;;;6.00;64.59;103178.16;3571371;40;20434;-65
2022/01/24 04:37:01;;;;;;;33.65;23.73;;;;;;;6.06;65.38;103179.91;3575901;40;20059;-65
2022/01/24 04:39:27;;;;;;;32.58;23.30;;;;;;;6.05;65.13;103195.03;3572926;40;20092;-65
2022/01/24 04:41:56;;;;;;;32.92;22.38;;;;;;;6.05;65.41;103196.81;3582929;40;20045;-65
2022/01/24 04:47:27;;;;;;;31.92;22.27;;;;;;;5.90;64.88;103172.81;3578071;40;20089;-65
2022/01/24 04:55:06;;;;;;;34.45;22.55;;;;;;;6.00;65.60;103193.28;3573735;40;20427;-64
2022/01/24 04:57:31;;;;;;;34.72;22.40;;;;;;;6.03;65.68;103195.94;3574048;40;20053;-64
2022/01/24 05:00:00;;;;;;;32.20;22.75;;;;;;;6.00;65.15;103203.97;3574118;40;20071;-64
2022/01/24 05:02:27;;;;;;;32.33;22.15;;;;;;;6.01;65.33;103195.94;3573774;40;20098;-64
2022/01/24 05:04:56;;;;;;;33.20;22.52;;;;;;;5.86;65.75;103168.41;3566617;40;20045;-64
2022/01/24 05:07:22;;;;;;;33.17;22.48;;;;;;;5.98;66.73;103203.97;3567597;40;20060;-64
2022/01/24 05:23:30;;;;;;;33.00;22.80;;;;;;;5.88;66.46;103209.31;3572532;40;20378;-65
2022/01/24 05:26:00;;;;;;;32.88;22.88;;;;;;;5.92;66.34;103205.75;3565686;40;20316;-65
2022/01/24 05:28:28;;;;;;;31.15;22.27;;;;;;;5.91;66.01;103201.31;3567789;40;20057;-65
2022/01/24 05:30:55;;;;;;;33.30;21.48;;;;;;;5.84;65.59;103196.91;3565445;40;20409;-64
2022/01/24 05:33:20;;;;;;;31.75;21.67;;;;;;;5.85;66.19;103198.66;3570365;40;20400;-64
2022/01/24 05:35:47;;;;;;;29.30;20.20;;;;;;;5.75;65.37;103181.78;3569783;40;20085;-64
2022/01/24 05:38:13;;;;;;;28.75;21.05;;;;;;;5.81;65.13;103188.00;3579853;40;20052;-65
2022/01/24 05:40:39;;;;;;;30.77;20.15;;;;;;;5.82;65.11;103189.75;3576941;40;20075;-64
2022/01/24 05:43:07;;;;;;;28.55;20.95;;;;;;;5.64;65.74;103156.91;3578627;40;20060;-65
2022/01/24 05:45:34;;;;;;;29.02;20.17;;;;;;;5.85;65.65;103190.66;3566291;40;20045;-64
2022/01/24 05:48:00;;;;;;;31.27;21.60;;;;;;;5.82;65.83;103187.09;3573305;40;20373;-65
2022/01/24 05:50:26;;;;;;;30.33;21.27;;;;;;;5.81;65.89;103187.13;3576573;40;20076;-65
2022/01/24 05:52:52;;;;;;;31.80;22.08;;;;;;;5.79;66.16;103197.78;3571069;40;20056;-65
2022/01/24 05:55:18;;;;;;;29.77;21.33;;;;;;;5.77;65.96;103198.66;3567754;40;20414;-65
2022/01/24 05:57:44;;;;;;;28.63;19.92;;;;;;;5.79;65.89;103196.91;3572947;40;20061;-64
2022/01/24 06:00:13;;;;;;;31.23;21.77;;;;;;;5.78;65.20;103198.69;3577824;40;20057;-64
2022/01/24 06:02:40;;;;;;;29.90;21.25;;;;;;;5.79;66.08;103204.91;3569953;40;20473;-63
2022/01/24 06:05:07;;;;;;;32.78;22.45;;;;;;;5.70;66.32;103189.81;3572637;40;20382;-64
2022/01/24 06:07:33;;;;;;;35.17;21.45;;;;;;;5.78;66.50;103192.47;3565933;40;20045;-64
2022/01/24 06:09:59;;;;;;;32.47;22.17;;;;;;;5.74;65.74;103196.00;3568273;40;20060;-63
2022/01/24 06:12:25;;;;;;;33.00;22.60;;;;;;;5.77;65.98;103204.94;3569654;40;20095;-64
2022/01/24 06:14:51;;;;;;;31.70;21.95;;;;;;;5.77;66.17;103198.66;3569131;40;20490;-64
2022/01/24 06:17:17;;;;;;;32.42;22.27;;;;;;;5.71;66.41;103199.59;3566925;40;20053;-64
2022/01/24 06:19:44;;;;;;;30.98;21.33;;;;;;;5.72;66.61;103204.03;3569756;40;20049;-64
2022/01/24 06:22:10;;;;;;;31.08;20.92;;;;;;;5.71;65.89;103199.59;3570302;40;20072;-64
2022/01/24 06:24:35;;;;;;;29.70;19.42;;;;;;;5.68;65.90;103199.63;3570031;40;20108;-64
2022/01/24 06:27:01;;;;;;;31.65;20.02;;;;;;;5.68;65.85;103193.41;3569661;40;20116;-64
2022/01/24 06:29:27;;;;;;;29.13;19.80;;;;;;;5.67;66.07;103199.59;3567003;40;20120;-64
2022/01/24 06:31:53;;;;;;;29.08;19.77;;;;;;;5.66;66.59;103203.19;3569336;40;20061;-64
2022/01/24 06:34:19;;;;;;;31.42;19.17;;;;;;;5.65;66.50;103206.75;3571956;40;20052;-64
2022/01/24 06:36:44;;;;;;;29.73;19.65;;;;;;;5.64;66.40;103203.16;3564770;40;20061;-64
2022/01/24 06:39:11;;;;;;;30.58;19.77;;;;;;;5.63;66.70;103201.41;3565068;40;20056;-64
2022/01/24 06:41:37;;;;;;;29.15;19.13;;;;;;;5.63;66.55;103198.72;3565999;40;20061;-64
2022/01/24 06:44:04;;;;;;;28.67;19.05;;;;;;;5.64;65.73;103200.50;3570118;40;20411;-64
2022/01/24 06:46:30;;;;;;;31.35;19.40;;;;;;;5.62;66.15;103196.97;3556393;40;20140;-64
2022/01/24 06:48:56;;;;;;;28.45;19.30;;;;;;;5.62;66.43;103202.31;3569012;40;20529;-64
2022/01/24 06:51:23;;;;;;;29.27;18.48;;;;;;;5.34;66.29;103157.03;3565618;40;20050;-64
2022/01/24 06:53:49;;;;;;;30.98;18.52;;;;;;;5.59;65.94;103210.31;3570137;40;20383;-64
2022/01/24 06:56:16;;;;;;;30.20;19.75;;;;;;;5.51;66.96;103188.09;3565769;40;20049;-64
2022/01/24 06:58:42;;;;;;;29.10;19.08;;;;;;;5.57;66.81;103209.41;3568518;40;20125;-64
2022/01/24 07:01:08;;;;;;;30.45;19.17;;;;;;;5.57;66.53;103214.75;3569692;40;20127;-64
2022/01/24 07:03:34;;;;;;;29.52;19.55;;;;;;;5.51;66.37;103204.09;3566730;40;20127;-64
2022/01/24 07:06:02;;;;;;;30.35;18.92;;;;;;;5.46;66.91;103196.13;3565480;40;20053;-64
2022/01/24 07:08:28;;;;;;;27.70;18.15;;;;;;;5.51;67.71;103210.31;3565846;40;20055;-64
2022/01/24 07:10:53;;;;;;;29.90;18.55;;;;;;;5.51;66.39;103214.75;3570891;40;20065;-64
2022/01/24 07:13:21;;;;;;;27.52;17.48;;;;;;;5.51;67.25;103215.66;3564149;40;20053;-64
2022/01/24 07:15:51;;;;;;;29.45;19.13;;;;;;;5.51;67.00;103214.75;3566283;40;20052;-64
2022/01/24 07:18:57;;;;;;;29.55;19.00;;;;;;;5.47;67.42;103205.00;3568937;40;20052;-64
2022/01/24 07:21:07;;;;;;;29.67;19.13;;;;;;;5.50;67.07;103218.34;3570732;40;20045;-64
2022/01/24 07:23:34;;;;;;;29.00;18.08;;;;;;;5.45;66.79;103210.31;3565111;40;20131;-64
2022/01/24 07:26:00;;;;;;;28.52;18.02;;;;;;;5.46;66.84;103216.56;3571932;40;20041;-64
2022/01/24 07:28:26;;;;;;;31.75;20.63;;;;;;;5.50;67.09;103223.66;3568391;40;20055;-65
2022/01/24 07:30:51;;;;;;;41.75;24.67;;;;;;;5.50;66.79;103229.00;3568792;40;20072;-64
2022/01/24 07:33:17;;;;;;;35.88;21.67;;;;;;;5.48;67.36;103221.00;3569356;40;20055;-65
2022/01/24 07:35:44;;;;;;;30.70;18.48;;;;;;;5.50;66.98;103229.00;3567413;40;20107;-64
2022/01/24 07:38:11;;;;;;;31.85;20.02;;;;;;;5.46;67.33;103227.25;3570087;40;20048;-64
2022/01/24 07:40:41;;;;;;;30.83;19.02;;;;;;;5.48;67.16;103228.09;3570022;40;20101;-64
2022/01/24 07:45:37;;;;;;;30.33;19.80;;;;;;;5.45;67.34;103215.66;3569867;40;20052;-64
2022/01/24 07:48:04;;;;;;;36.75;19.90;;;;;;;5.53;67.77;103226.34;3568441;40;20123;-64
2022/01/24 07:50:31;;;;;;;30.58;19.60;;;;;;;5.52;67.17;103221.91;3568547;40;20315;-64
2022/01/24 07:53:00;;;;;;;31.83;20.15;;;;;;;5.53;66.65;103221.00;3567221;40;20051;-64
2022/01/24 07:55:26;;;;;;;31.20;19.67;;;;;;;5.52;66.95;103235.25;3566597;40;20039;-64
2022/01/24 07:57:52;;;;;;;30.15;20.05;;;;;;;5.54;67.07;103236.09;3567253;40;20088;-64
2022/01/24 08:00:18;;;;;;;30.02;20.38;;;;;;;5.54;67.25;103236.09;3565519;40;20456;-65
2022/01/24 08:02:44;;;;;;;31.38;20.42;;;;;;;5.53;66.59;103239.66;3555149;40;20064;-64
2022/01/24 08:05:11;;;;;;;36.03;24.25;;;;;;;5.53;65.93;103245.88;3565840;40;20044;-64
2022/01/24 08:07:38;;;;;;;33.80;23.13;;;;;;;5.46;66.14;103243.25;3566397;40;20061;-64
2022/01/24 08:10:07;;;;;;;36.63;23.08;;;;;;;5.53;66.22;103250.34;3566257;40;20111;-65
2022/01/24 08:12:34;;;;;;;35.83;23.95;;;;;;;5.26;65.75;103211.25;3564675;40;20115;-65
2022/01/24 08:15:02;;;;;;;36.05;24.38;;;;;;;5.56;66.14;103255.69;3567761;40;20059;-65
2022/01/24 08:17:29;;;;;;;34.75;23.85;;;;;;;5.56;65.91;103253.88;3570465;40;20308;-65
2022/01/24 08:19:55;;;;;;;31.92;23.10;;;;;;;5.44;65.55;103232.56;3566673;40;20123;-65
2022/01/24 08:22:20;;;;;;;37.45;23.60;;;;;;;5.56;65.92;103267.22;3568766;40;20048;-65
2022/01/24 08:24:46;;;;;;;35.28;23.60;;;;;;;5.57;65.32;103257.44;3565103;40;20344;-65
2022/01/24 08:27:15;;;;;;;39.85;25.40;;;;;;;5.58;65.51;103257.47;3568669;40;20092;-65
2022/01/24 08:29:43;;;;;;;39.13;24.92;;;;;;;5.57;65.36;103252.09;3569421;40;20378;-65
2022/01/24 08:32:10;;;;;;;34.25;23.30;;;;;;;5.56;65.32;103251.22;3569144;40;20079;-65
2022/01/24 08:34:35;;;;;;;35.08;24.52;;;;;;;5.59;64.44;103255.66;3562164;40;20061;-65
2022/01/24 08:37:01;;;;;;;34.95;23.55;;;;;;;5.39;64.62;103218.34;3566248;40;20060;-65
2022/01/24 08:39:27;;;;;;;34.33;22.83;;;;;;;5.61;64.32;103259.19;3557247;40;20057;-66
2022/01/24 08:47:05;;;;;;;32.97;21.90;;;;;;;5.59;64.08;103259.22;3543622;40;20060;-66
2022/01/24 08:49:32;;;;;;;33.58;20.98;;;;;;;5.57;64.18;103254.78;3567106;40;20406;-66
2022/01/24 08:51:59;;;;;;;34.67;22.85;;;;;;;5.63;64.58;103259.22;3568493;40;20044;-65
2022/01/24 08:54:26;;;;;;;33.45;23.60;;;;;;;5.67;65.14;103258.31;3565423;40;20051;-65
2022/01/24 08:56:51;;;;;;;36.05;24.35;;;;;;;5.67;64.70;103269.88;3566478;40;20299;-65
2022/01/24 08:59:17;;;;;;;34.50;23.50;;;;;;;5.65;64.03;103268.13;3566571;40;20053;-65
2022/01/24 09:01:46;;;;;;;35.45;22.73;;;;;;;5.66;64.54;103272.56;3569364;40;20064;-65
2022/01/24 09:04:12;;;;;;;36.08;22.73;;;;;;;5.04;64.09;103154.41;3571800;40;20100;-67
2022/01/24 09:06:38;;;;;;;34.90;23.42;;;;;;;5.65;63.99;103268.13;3564314;40;20372;-66
2022/01/24 09:09:05;;;;;;;33.95;22.85;;;;;;;5.44;64.50;103229.00;3565565;40;20056;-66
2022/01/24 09:11:34;;;;;;;32.83;22.30;;;;;;;5.66;63.89;103267.22;3605802;22;20086;-63
2022/01/24 09:14:03;;;;;;;34.55;22.35;;;;;;;5.68;64.15;103269.00;3590302;40;20064;-61
2022/01/24 09:16:29;;;;;;;33.47;23.02;;;;;;;5.53;64.47;103239.66;3592997;40;20404;-63
2022/01/24 09:18:54;;;;;;;40.22;25.27;;;;;;;5.67;64.47;103253.84;3590370;40;20048;-61
2022/01/24 09:21:22;;;;;;;34.20;21.88;;;;;;;5.69;63.95;103272.53;3589926;40;20060;-61
2022/01/24 09:23:48;;;;;;;34.08;21.33;;;;;;;5.61;64.07;103263.66;3590896;40;20056;-62
2022/01/24 09:26:15;;;;;;;33.03;22.08;;;;;;;5.62;63.95;103263.66;3593185;40;20083;-62
2022/01/24 09:28:40;;;;;;;31.35;20.90;;;;;;;5.68;64.21;103279.66;3587054;40;20387;-62
2022/01/24 09:31:06;;;;;;;34.03;21.70;;;;;;;5.65;63.92;103270.78;3589668;40;20087;-62
2022/01/24 09:33:33;;;;;;;33.47;21.58;;;;;;;5.72;63.45;103268.09;3587645;40;20347;-62
2022/01/24 09:36:00;;;;;;;32.85;21.98;;;;;;;5.69;64.24;103253.88;3591533;40;20092;-62
2022/01/24 09:38:33;;;;;;;33.05;22.02;;;;;;;5.76;63.04;103268.97;3588458;40;20044;-63
2022/01/24 09:41:04;;;;;;;31.40;21.65;;;;;;;5.72;64.81;103262.75;3590510;40;20047;-62
2022/01/24 09:43:30;;;;;;;32.55;21.45;;;;;;;5.85;64.84;103273.41;3589219;40;20076;-64
2022/01/24 09:45:58;;;;;;;29.25;20.17;;;;;;;5.86;63.99;103265.38;3590541;40;20394;-62
2022/01/24 09:48:23;;;;;;;31.08;20.83;;;;;;;5.65;64.21;103228.09;3587339;40;20072;-62
2022/01/24 09:50:52;;;;;;;30.27;19.45;;;;;;;5.87;64.17;103267.16;3590866;40;20118;-62
2022/01/24 09:53:23;;;;;;;31.98;20.50;;;;;;;5.84;64.54;103256.50;3589338;40;20047;-63
2022/01/24 09:55:50;;;;;;;30.10;19.15;;;;;;;5.90;63.78;103263.56;3589356;40;20090;-63
2022/01/24 09:58:18;;;;;;;28.38;17.80;;;;;;;5.88;63.36;103257.38;3587198;40;20051;-62
2022/01/24 10:00:46;;;;;;;29.15;19.33;;;;;;;5.89;63.15;103265.38;3588088;40;20082;-62
2022/01/24 10:03:13;;;;;;;28.75;18.20;;;;;;;5.91;63.22;103262.72;3588040;40;20058;-62
2022/01/24 10:05:42;;;;;;;28.55;18.92;;;;;;;5.88;63.26;103258.25;3586974;40;20366;-60
2022/01/24 10:08:17;;;;;;;29.40;19.33;;;;;;;5.90;62.44;103260.91;3586269;40;20295;-60
2022/01/24 10:10:53;;;;;;;29.45;18.95;;;;;;;5.87;62.80;103267.16;3590548;40;20062;-63
2022/01/24 10:16:35;;;;;;;29.75;19.10;;;;;;;5.91;63.00;103262.72;3589768;40;20118;-62
2022/01/24 10:19:16;;;;;;;30.33;18.75;;;;;;;5.90;62.04;103266.25;3588918;40;20048;-62
2022/01/24 10:21:53;;;;;;;28.92;18.35;;;;;;;5.92;63.18;103264.47;3589907;40;20352;-64
2022/01/24 10:24:57;;;;;;;29.50;18.70;;;;;;;5.92;63.08;103265.34;3591367;40;20044;-62
2022/01/24 10:27:27;;;;;;;49.25;29.10;;;;;;;5.99;62.63;103268.91;3587251;40;20057;-62
2022/01/24 10:30:08;;;;;;;52.25;31.27;;;;;;;6.03;62.83;103268.91;3588096;40;20044;-62
2022/01/24 10:32:49;;;;;;;35.35;22.13;;;;;;;6.07;62.74;103266.25;3586696;40;20153;-63
2022/01/24 10:35:36;;;;;;;25.67;17.40;;;;;;;6.06;62.07;103262.69;3585781;40;20048;-62
2022/01/24 10:38:41;;;;;;;29.50;18.77;;;;;;;6.05;62.86;103259.09;3588235;40;20053;-63
2022/01/24 10:42:10;;;;;;;90.63;38.58;;;;;;;6.01;62.92;103243.13;3587307;40;20403;-61
2022/01/24 10:44:04;;;;;;;67.07;31.48;;;;;;;6.16;62.69;103260.88;3587797;40;20483;-63
2022/01/24 10:46:30;;;;;;;31.75;19.70;;;;;;;6.10;61.77;103244.88;3588163;40;20056;-61
2022/01/24 10:49:09;;;;;;;27.85;18.85;;;;;;;6.11;61.78;103239.50;3586716;40;20080;-61
2022/01/24 10:51:46;;;;;;;29.23;18.45;;;;;;;5.89;61.38;103201.28;3588086;40;20048;-61
2022/01/24 10:54:27;;;;;;;28.38;18.10;;;;;;;6.12;62.30;103238.63;3586855;40;20057;-61
2022/01/24 10:56:53;;;;;;;26.05;17.60;;;;;;;6.21;62.30;103246.56;3588553;40;20056;-61
2022/01/24 10:59:25;;;;;;;25.60;17.42;;;;;;;6.19;61.67;103231.47;3586873;40;20056;-61
2022/01/24 11:01:58;;;;;;;26.23;17.70;;;;;;;6.27;61.37;103243.88;3589441;40;20341;-61
2022/01/24 11:04:27;;;;;;;27.52;18.23;;;;;;;6.27;59.92;103246.53;3590677;40;20052;-60
2022/01/24 11:07:03;;;;;;;27.38;18.05;;;;;;;6.16;61.03;103237.72;3587052;40;20453;-63
2022/01/24 11:09:37;;;;;;;29.08;16.85;;;;;;;6.16;60.64;103244.84;3585674;40;20048;-61
2022/01/24 11:12:07;;;;;;;28.58;18.38;;;;;;;6.06;60.95;103236.00;3588728;40;20132;-61
2022/01/24 11:14:35;;;;;;;27.27;17.50;;;;;;;6.04;60.59;103235.09;3586943;40;20060;-61
2022/01/24 11:17:04;;;;;;;26.35;17.90;;;;;;;6.05;61.37;103236.84;3586548;40;20048;-61
2022/01/24 11:19:47;;;;;;;29.42;20.30;;;;;;;6.06;61.97;103236.00;3586582;40;20422;-63
2022/01/24 11:22:25;;;;;;;27.38;17.92;;;;;;;6.06;61.98;103230.66;3586826;40;20077;-61
2022/01/24 11:24:58;;;;;;;28.27;18.38;;;;;;;6.13;61.70;103244.84;3585051;40;20048;-62
2022/01/24 11:27:27;;;;;;;30.33;19.10;;;;;;;6.14;61.68;103234.16;3587388;40;20080;-62
2022/01/24 11:30:15;;;;;;;29.63;18.60;;;;;;;6.15;62.38;103233.28;3587096;40;20048;-62
2022/01/24 11:33:04;;;;;;;102.60;50.60;;;;;;;6.23;63.21;103226.09;3588334;40;20055;-63
2022/01/24 11:35:39;;;;;;;57.47;33.00;;;;;;;6.24;61.85;103219.84;3589069;40;20124;-62
2022/01/24 11:38:28;;;;;;;31.25;20.65;;;;;;;6.23;62.72;103207.41;3577011;40;20044;-62
2022/01/24 11:41:06;;;;;;;30.23;19.80;;;;;;;6.31;60.49;103231.38;3594132;40;20055;-62
2022/01/24 11:43:40;;;;;;;26.63;17.92;;;;;;;6.25;61.47;103216.31;3587994;40;20127;-62
2022/01/24 11:46:44;;;;;;;28.25;18.48;;;;;;;6.28;60.96;103232.31;3585678;40;20052;-62
2022/01/24 11:49:25;;;;;;;30.00;20.77;;;;;;;6.27;61.70;103230.53;3587188;40;20118;-62
2022/01/24 11:52:11;;;;;;;42.03;28.08;;;;;;;6.25;62.75;103218.97;3585355;40;20130;-63
2022/01/24 11:55:16;;;;;;;67.10;37.75;;;;;;;6.26;60.97;103206.50;3589588;40;20056;-62
2022/01/24 11:57:47;;;;;;;116.32;55.55;;;;;;;6.34;61.46;103217.13;3583538;40;20064;-62
2022/01/24 12:00:27;;;;;;;245.55;95.47;;;;;;;6.39;60.81;103220.69;3589470;40;20056;-62
2022/01/24 12:03:04;;;;;;;87.57;42.55;;;;;;;6.39;61.23;103216.22;3588561;40;20062;-62
2022/01/24 12:05:48;;;;;;;79.13;44.25;;;;;;;6.39;61.37;103208.19;3588690;40;20068;-62
2022/01/24 12:08:41;;;;;;;93.70;49.92;;;;;;;6.39;61.40;103196.63;3585016;40;20051;-62
2022/01/24 12:11:30;;;;;;;61.50;34.33;;;;;;;6.34;60.88;103177.06;3587670;40;20049;-62
2022/01/24 12:14:11;;;;;;;99.68;48.95;;;;;;;6.42;61.59;103191.28;3586506;40;20055;-62
2022/01/24 12:16:43;;;;;;;56.03;31.38;;;;;;;6.46;61.35;103206.38;3586492;40;20041;-62
2022/01/24 12:19:11;;;;;;;33.35;21.73;;;;;;;6.45;61.21;103193.94;3584598;40;20064;-62
2022/01/24 12:21:39;;;;;;;31.23;21.52;;;;;;;6.50;61.57;103200.09;3590191;40;20488;-62
2022/01/24 12:24:06;;;;;;;34.13;23.35;;;;;;;6.51;61.01;103201.91;3587452;40;20048;-61
2022/01/24 12:26:37;;;;;;;32.67;22.33;;;;;;;6.51;60.90;103191.22;3587425;40;20056;-62
2022/01/24 12:29:10;;;;;;;42.22;27.95;;;;;;;6.58;61.17;103192.94;3591047;40;20067;-62
2022/01/24 12:31:44;;;;;;;30.98;20.27;;;;;;;6.60;59.93;103191.16;3586609;40;20099;-62
2022/01/24 12:34:39;;;;;;;28.70;20.27;;;;;;;6.62;60.87;103189.34;3588674;40;20044;-62
2022/01/24 12:37:21;;;;;;;30.42;19.65;;;;;;;6.61;60.13;103187.56;3582486;40;20076;-62
2022/01/24 12:40:01;;;;;;;29.77;19.20;;;;;;;6.64;60.91;103190.22;3578543;40;20062;-62
2022/01/24 12:48:13;;;;;;;29.48;18.85;;;;;;;6.63;60.38;103184.88;3590459;40;20338;-62
2022/01/24 12:50:48;;;;;;;29.60;18.95;;;;;;;6.62;60.00;103177.75;3588998;40;20469;-62
2022/01/24 12:53:16;;;;;;;28.40;18.67;;;;;;;6.48;60.01;103154.72;3590918;40;20067;-62
2022/01/24 12:55:54;;;;;;;29.35;19.25;;;;;;;6.60;59.82;103177.78;3591886;40;20064;-62
2022/01/24 12:58:40;;;;;;;31.15;19.80;;;;;;;6.49;59.74;103152.91;3592538;40;20360;-62
2022/01/24 13:01:19;;;;;;;32.40;20.90;;;;;;;6.66;60.02;103174.16;3580015;40;20095;-62
2022/01/24 13:03:49;;;;;;;29.95;19.00;;;;;;;6.72;59.19;103175.03;3589443;40;20403;-63
2022/01/24 13:06:16;;;;;;;29.67;19.85;;;;;;;6.58;60.62;103139.50;3589512;40;20052;-61
2022/01/24 13:09:04;;;;;;;29.48;18.95;;;;;;;6.35;59.67;103091.59;3589660;40;20104;-62
2022/01/24 13:11:31;;;;;;;28.42;19.50;;;;;;;6.76;60.08;103145.59;3589376;40;20119;-62
2022/01/24 13:14:12;;;;;;;31.80;20.65;;;;;;;6.83;59.99;103150.00;3585952;40;20067;-62
2022/01/24 13:25:25;;;;;;;30.30;19.45;;;;;;;6.82;60.63;103132.16;3588099;40;20072;-62
2022/01/24 13:28:00;;;;;;;29.30;19.15;;;;;;;6.82;59.89;103148.19;3591465;40;20060;-63
2022/01/24 13:30:35;;;;;;;31.50;19.38;;;;;;;6.82;59.48;103153.53;3589533;40;20087;-62
2022/01/24 13:33:11;;;;;;;29.23;19.85;;;;;;;6.84;61.03;103152.63;3588787;40;20091;-63
2022/01/24 13:35:48;;;;;;;30.05;21.08;;;;;;;6.81;61.10;103136.63;3589864;40;20056;-62